createdAt,value
2022-11-28T00:00:07.062Z,93.97
2022-11-28T00:02:43.229Z,91.28
2022-11-28T00:05:13.208Z,91.01
2022-11-28T00:07:42.173Z,94.05
2022-11-28T00:10:12.200Z,97.36
2022-11-28T00:12:41.350Z,96.50
2022-11-28T00:15:12.807Z,94.93
2022-11-28T00:17:43.089Z,93.41
2022-11-28T00:20:12.653Z,93.92
2022-11-28T00:22:41.582Z,92.43
2022-11-28T00:25:10.675Z,91.58
2022-11-28T00:27:39.516Z,94.04
2022-11-28T00:30:10.197Z,92.77
2022-11-28T00:32:39.668Z,90.85
2022-11-28T00:35:10.380Z,93.75
2022-11-28T00:37:39.319Z,96.74
2022-11-28T00:40:09.325Z,98.32
2022-11-28T00:42:38.301Z,100.00
2022-11-28T00:45:08.013Z,100.00
2022-11-28T00:47:36.887Z,100.00
2022-11-28T00:50:06.886Z,100.00
2022-11-28T00:52:37.197Z,100.00
2022-11-28T00:55:06.465Z,100.00
2022-11-28T00:57:35.632Z,100.00
2022-11-28T01:00:06.033Z,100.00
2022-11-28T01:02:35.131Z,100.00
2022-11-28T01:05:04.116Z,100.00
2022-11-28T01:07:34.493Z,100.00
2022-11-28T01:10:05.807Z,99.82
2022-11-28T01:12:34.688Z,97.78
2022-11-28T01:15:04.382Z,95.38
2022-11-28T01:17:33.250Z,93.89
2022-11-28T01:20:02.124Z,93.53
2022-11-28T01:22:31.020Z,93.54
2022-11-28T01:24:59.866Z,94.14
2022-11-28T01:27:30.112Z,92.67
2022-11-28T01:29:58.931Z,91.99
2022-11-28T01:32:27.811Z,91.75
2022-11-28T01:34:56.746Z,92.58
2022-11-28T01:37:25.686Z,91.51
2022-11-28T01:39:54.666Z,90.71
2022-11-28T01:42:23.532Z,91.28
2022-11-28T01:45:17.728Z,93.83
2022-11-28T01:47:47.258Z,92.56
2022-11-28T01:50:17.306Z,92.37
2022-11-28T01:52:49.152Z,92.58
2022-11-28T01:55:21.968Z,92.18
2022-11-28T01:57:52.229Z,91.00
2022-11-28T02:00:23.334Z,89.86
2022-11-28T02:02:55.101Z,91.63
2022-11-28T02:05:24.382Z,92.56
2022-11-28T02:07:53.920Z,96.98
2022-11-28T02:10:27.173Z,95.15
2022-11-28T02:13:07.335Z,95.83
2022-11-28T02:15:54.275Z,94.21
2022-11-28T02:18:40.307Z,93.62
2022-11-28T02:21:30.645Z,95.19
2022-11-28T02:24:41.785Z,93.69
2022-11-28T02:27:25.439Z,96.39
2022-11-28T02:30:23.700Z,97.01
2022-11-28T02:33:11.923Z,97.94
2022-11-28T02:35:50.833Z,99.23
2022-11-28T02:38:26.530Z,100.00
2022-11-28T02:41:03.588Z,100.00
2022-11-28T02:43:39.907Z,100.00
2022-11-28T02:46:14.971Z,100.00
2022-11-28T02:48:50.906Z,100.00
2022-11-28T02:51:26.451Z,100.00
2022-11-28T02:53:57.583Z,100.00
2022-11-28T02:56:27.139Z,98.07
2022-11-28T02:58:56.281Z,100.00
2022-11-28T03:01:33.511Z,100.00
2022-11-28T03:04:20.609Z,100.00
2022-11-28T03:07:00.047Z,100.00
2022-11-28T03:09:56.210Z,100.00
2022-11-28T03:12:34.364Z,100.00
2022-11-28T03:15:06.238Z,100.00
2022-11-28T03:17:41.880Z,100.00
2022-11-28T03:20:20.582Z,100.00
2022-11-28T03:23:03.624Z,100.00
2022-11-28T03:25:39.481Z,100.00
2022-11-28T03:28:13.336Z,100.00
2022-11-28T03:30:48.021Z,100.00
2022-11-28T03:33:19.054Z,100.00
2022-11-28T03:35:55.267Z,100.00
2022-11-28T03:38:29.676Z,100.00
2022-11-28T03:41:04.212Z,100.00
2022-11-28T03:43:40.030Z,100.00
2022-11-28T03:46:12.805Z,100.00
2022-11-28T03:48:45.495Z,100.00
2022-11-28T03:51:19.334Z,100.00
2022-11-28T03:53:55.315Z,100.00
2022-11-28T03:56:30.088Z,100.00
2022-11-28T03:59:03.849Z,100.00
2022-11-28T04:01:42.035Z,100.00
2022-11-28T04:04:21.101Z,100.00
2022-11-28T04:06:59.650Z,100.00
2022-11-28T04:09:41.067Z,100.00
2022-11-28T04:12:18.705Z,100.00
2022-11-28T04:14:51.089Z,100.00
2022-11-28T04:17:26.662Z,100.00
2022-11-28T04:19:59.460Z,100.00
2022-11-28T04:22:32.769Z,100.00
2022-11-28T04:25:05.971Z,100.00
2022-11-28T04:27:39.926Z,100.00
2022-11-28T04:30:10.511Z,100.00
2022-11-28T04:32:43.715Z,100.00
2022-11-28T04:35:16.653Z,100.00
2022-11-28T04:37:49.386Z,100.00
2022-11-28T04:40:21.100Z,100.00
2022-11-28T04:42:54.016Z,100.00
2022-11-28T04:45:28.502Z,100.00
2022-11-28T04:47:59.364Z,100.00
2022-11-28T04:50:33.549Z,100.00
2022-11-28T04:53:10.599Z,100.00
2022-11-28T04:55:45.263Z,100.00
2022-11-28T04:58:17.618Z,100.00
2022-11-28T05:00:48.711Z,100.00
2022-11-28T05:03:18.664Z,100.00
2022-11-28T05:05:49.959Z,100.00
2022-11-28T05:08:20.590Z,100.00
2022-11-28T05:10:49.576Z,100.00
2022-11-28T05:13:18.507Z,100.00
2022-11-28T05:15:47.377Z,100.00
2022-11-28T05:18:16.250Z,100.00
2022-11-28T05:20:45.757Z,100.00
2022-11-28T05:23:14.718Z,100.00
2022-11-28T05:25:44.944Z,100.00
2022-11-28T05:28:13.778Z,100.00
2022-11-28T05:30:42.586Z,100.00
2022-11-28T05:33:11.471Z,100.00
2022-11-28T05:35:40.940Z,100.00
2022-11-28T05:38:13.511Z,100.00
2022-11-28T05:40:44.417Z,100.00
2022-11-28T05:43:13.589Z,100.00
2022-11-28T05:45:42.935Z,100.00
2022-11-28T05:48:12.143Z,100.00
2022-11-28T05:50:41.368Z,100.00
2022-11-28T05:53:10.880Z,100.00
2022-11-28T05:55:41.215Z,100.00
2022-11-28T05:58:12.124Z,100.00
2022-11-28T06:00:41.041Z,100.00
2022-11-28T06:03:09.926Z,100.00
2022-11-28T06:05:43.139Z,100.00
2022-11-28T06:08:13.586Z,100.00
2022-11-28T06:10:42.852Z,100.00
2022-11-28T06:13:13.100Z,100.00
2022-11-28T06:15:44.507Z,100.00
2022-11-28T06:18:13.432Z,100.00
2022-11-28T06:20:42.330Z,100.00
2022-11-28T06:23:11.269Z,100.00
2022-11-28T06:25:40.106Z,100.00
2022-11-28T06:28:09.029Z,100.00
2022-11-28T06:30:39.269Z,100.00
2022-11-28T06:33:08.160Z,100.00
2022-11-28T06:35:37.135Z,100.00
2022-11-28T06:38:10.155Z,100.00
2022-11-28T06:40:41.999Z,100.00
2022-11-28T06:43:10.940Z,100.00
2022-11-28T06:45:41.308Z,100.00
2022-11-28T06:48:10.363Z,100.00
2022-11-28T06:50:39.262Z,100.00
2022-11-28T06:53:08.322Z,100.00
2022-11-28T06:55:37.401Z,100.00
2022-11-28T06:58:06.579Z,100.00
2022-11-28T07:00:36.167Z,100.00
2022-11-28T07:03:06.729Z,100.00
2022-11-28T07:05:35.618Z,100.00
2022-11-28T07:08:04.565Z,100.00
2022-11-28T07:10:33.881Z,100.00
2022-11-28T07:13:05.529Z,100.00
2022-11-28T07:15:34.661Z,100.00
2022-11-28T07:18:03.772Z,100.00
2022-11-28T07:20:34.971Z,100.00
2022-11-28T07:23:03.805Z,100.00
2022-11-28T07:25:32.626Z,100.00
2022-11-28T07:28:02.073Z,100.00
2022-11-28T07:30:30.894Z,100.00
2022-11-28T07:32:59.896Z,100.00
2022-11-28T07:35:29.524Z,100.00
2022-11-28T07:37:59.767Z,100.00
2022-11-28T07:40:28.971Z,100.00
2022-11-28T07:42:59.181Z,100.00
2022-11-28T07:45:41.945Z,100.00
2022-11-28T07:48:17.063Z,100.00
2022-11-28T07:50:45.950Z,98.64
2022-11-28T07:53:16.280Z,98.01
2022-11-28T07:55:45.236Z,99.20
2022-11-28T07:58:14.118Z,98.20
2022-11-28T08:00:42.960Z,98.19
2022-11-28T08:03:12.164Z,100.00
2022-11-28T08:05:42.280Z,100.00
2022-11-28T08:08:11.149Z,100.00
2022-11-28T08:10:41.684Z,100.00
2022-11-28T08:13:10.926Z,100.00
2022-11-28T08:15:40.130Z,97.88
2022-11-28T08:18:09.176Z,98.81
2022-11-28T08:20:38.064Z,100.00
2022-11-28T08:23:07.112Z,99.30
2022-11-28T08:25:36.395Z,96.59
2022-11-28T08:28:06.693Z,93.70
2022-11-28T08:30:35.612Z,92.91
2022-11-28T08:33:04.512Z,90.56
2022-11-28T08:35:33.341Z,96.29
2022-11-28T08:38:02.358Z,97.19
2022-11-28T08:40:31.273Z,97.66
2022-11-28T08:43:00.120Z,92.90
2022-11-28T08:45:31.108Z,91.69
2022-11-28T08:48:00.243Z,89.19
2022-11-28T08:50:29.682Z,86.59
2022-11-28T08:53:01.725Z,82.32
2022-11-28T08:55:39.249Z,85.09
2022-11-28T08:58:10.558Z,86.35
2022-11-28T09:00:42.461Z,86.91
2022-11-28T09:03:15.670Z,78.08
2022-11-28T09:05:46.178Z,76.70
2022-11-28T09:08:16.019Z,74.06
2022-11-28T09:10:45.729Z,77.05
2022-11-28T09:13:16.202Z,85.25
2022-11-28T09:15:51.270Z,87.66
2022-11-28T09:18:21.484Z,89.01
2022-11-28T09:20:50.372Z,86.01
2022-11-28T09:23:19.251Z,86.82
2022-11-28T09:25:48.097Z,86.32
2022-11-28T09:28:16.942Z,88.65
2022-11-28T09:30:47.283Z,86.07
2022-11-28T09:33:16.204Z,86.03
2022-11-28T09:35:45.066Z,92.94
2022-11-28T09:38:14.045Z,96.28
2022-11-28T09:40:45.663Z,91.38
2022-11-28T09:43:18.341Z,93.94
2022-11-28T09:45:52.206Z,90.32
2022-11-28T09:48:31.537Z,95.21
2022-11-28T09:51:07.045Z,94.57
2022-11-28T09:53:43.147Z,97.50
2022-11-28T09:56:16.427Z,100.00
2022-11-28T09:58:49.733Z,98.10
2022-11-28T10:01:32.501Z,100.00
2022-11-28T10:04:05.662Z,100.00
2022-11-28T10:06:41.730Z,100.00
2022-11-28T10:09:26.668Z,100.00
2022-11-28T10:12:07.437Z,100.00
2022-11-28T10:14:59.225Z,100.00
2022-11-28T10:17:39.102Z,100.00
2022-11-28T10:20:13.626Z,97.29
2022-11-28T10:22:53.082Z,98.49
2022-11-28T10:25:28.133Z,100.00
2022-11-28T10:27:57.201Z,96.41
2022-11-28T10:30:28.461Z,100.00
2022-11-28T10:33:05.057Z,100.00
2022-11-28T10:35:43.764Z,96.46
2022-11-28T10:38:14.057Z,96.73
2022-11-28T10:40:51.064Z,91.18
2022-11-28T10:43:35.392Z,89.21
2022-11-28T10:46:26.055Z,93.18
2022-11-28T10:49:06.454Z,91.67
2022-11-28T10:51:45.602Z,97.27
2022-11-28T10:54:25.820Z,95.29
2022-11-28T10:57:05.017Z,99.13
2022-11-28T10:59:51.208Z,100.00
2022-11-28T11:02:23.577Z,100.00
2022-11-28T11:04:54.193Z,99.54
2022-11-28T11:07:29.932Z,100.00
2022-11-28T11:10:03.479Z,99.75
2022-11-28T11:12:33.511Z,99.82
2022-11-28T11:15:17.320Z,100.00
2022-11-28T11:17:46.297Z,97.74
2022-11-28T11:20:32.673Z,98.91
2022-11-28T11:23:03.418Z,99.25
2022-11-28T11:25:33.703Z,99.25
2022-11-28T11:28:05.343Z,96.91
2022-11-28T11:30:38.695Z,99.60
2022-11-28T11:33:15.035Z,95.52
2022-11-28T11:35:48.309Z,98.49
2022-11-28T11:38:26.503Z,93.97
2022-11-28T11:40:55.425Z,97.75
2022-11-28T11:43:27.800Z,97.46
2022-11-28T11:46:08.113Z,96.60
2022-11-28T11:48:38.955Z,100.00
2022-11-28T11:51:21.772Z,97.88
2022-11-28T11:54:00.842Z,100.00
2022-11-28T11:56:32.796Z,97.39
2022-11-28T11:59:04.546Z,96.67
2022-11-28T12:01:36.367Z,95.49
2022-11-28T12:04:24.049Z,88.75
2022-11-28T12:07:02.090Z,90.43
2022-11-28T12:09:39.174Z,94.54
2022-11-28T12:12:15.433Z,86.18
2022-11-28T12:14:44.769Z,91.07
2022-11-28T12:17:48.392Z,91.00
2022-11-28T12:20:36.359Z,90.52
2022-11-28T12:23:22.203Z,92.07
2022-11-28T12:25:57.480Z,93.97
2022-11-28T12:28:39.966Z,91.47
2022-11-28T12:31:20.302Z,92.33
2022-11-28T12:34:02.276Z,94.44
2022-11-28T12:36:37.721Z,98.66
2022-11-28T12:39:18.835Z,99.12
2022-11-28T12:42:12.609Z,99.97
2022-11-28T12:44:58.550Z,100.00
2022-11-28T12:47:40.278Z,100.00
2022-11-28T12:50:22.508Z,100.00
2022-11-28T12:53:00.974Z,97.53
2022-11-28T12:55:36.463Z,92.37
2022-11-28T12:58:11.610Z,92.36
2022-11-28T13:00:47.714Z,97.89
2022-11-28T13:03:36.437Z,96.30
2022-11-28T13:06:25.778Z,99.60
2022-11-28T13:09:10.493Z,100.00
2022-11-28T13:11:53.501Z,98.32
2022-11-28T13:14:33.119Z,100.00
2022-11-28T13:17:13.448Z,100.00
2022-11-28T13:19:50.612Z,100.00
2022-11-28T13:22:24.801Z,100.00
2022-11-28T13:25:02.074Z,100.00
2022-11-28T13:27:39.822Z,98.67
2022-11-28T13:30:18.537Z,100.00
2022-11-28T13:32:53.252Z,100.00
2022-11-28T13:35:22.855Z,100.00
2022-11-28T13:40:53.241Z,100.00
2022-11-28T13:43:30.486Z,100.00
2022-11-28T13:45:59.580Z,100.00
2022-11-28T13:49:14.234Z,98.81
2022-11-28T13:51:43.949Z,100.00
2022-11-28T13:54:46.541Z,100.00
2022-11-28T13:57:28.619Z,100.00
2022-11-28T14:00:06.928Z,100.00
2022-11-28T14:02:47.711Z,100.00
2022-11-28T14:05:26.832Z,100.00
2022-11-28T14:07:57.611Z,100.00
2022-11-28T14:11:05.826Z,100.00
2022-11-28T14:14:04.380Z,100.00
2022-11-28T14:16:51.781Z,100.00
2022-11-28T14:19:34.056Z,100.00
2022-11-28T14:22:19.030Z,100.00
2022-11-28T14:24:58.038Z,100.00
2022-11-28T14:27:31.367Z,100.00
2022-11-28T14:30:02.299Z,100.00
2022-11-28T14:32:37.004Z,100.00
2022-11-28T14:35:07.769Z,100.00
2022-11-28T14:37:53.038Z,100.00
2022-11-28T14:41:04.788Z,100.00
2022-11-28T14:43:36.742Z,100.00
2022-11-28T14:46:26.673Z,100.00
2022-11-28T14:49:24.437Z,100.00
2022-11-28T14:52:41.099Z,100.00
2022-11-28T14:55:20.679Z,100.00
2022-11-28T14:57:56.734Z,100.00
2022-11-28T15:00:27.987Z,100.00
2022-11-28T15:03:20.620Z,100.00
2022-11-28T15:05:52.842Z,100.00
2022-11-28T15:08:35.504Z,100.00
2022-11-28T15:11:17.832Z,100.00
2022-11-28T15:14:04.070Z,100.00
2022-11-28T15:16:37.742Z,100.00
2022-11-28T15:19:13.400Z,100.00
2022-11-28T15:21:48.290Z,100.00
2022-11-28T15:24:25.349Z,100.00
2022-11-28T15:26:57.808Z,100.00
2022-11-28T15:29:28.735Z,100.00
2022-11-28T15:31:59.252Z,100.00
2022-11-28T15:34:31.178Z,100.00
2022-11-28T15:37:03.710Z,100.00
2022-11-28T15:39:36.157Z,100.00
2022-11-28T15:42:06.875Z,100.00
2022-11-28T15:44:37.766Z,100.00
2022-11-28T15:47:17.305Z,100.00
2022-11-28T15:49:46.316Z,100.00
2022-11-28T15:52:19.171Z,100.00
2022-11-28T15:54:51.570Z,100.00
2022-11-28T15:57:21.899Z,100.00
2022-11-28T15:59:50.889Z,100.00
2022-11-28T16:02:23.982Z,100.00
2022-11-28T16:04:58.483Z,100.00
2022-11-28T16:07:29.304Z,100.00
2022-11-28T16:10:00.867Z,100.00
2022-11-28T16:12:29.985Z,100.00
2022-11-28T16:15:03.414Z,100.00
2022-11-28T16:17:35.261Z,100.00
2022-11-28T16:20:05.424Z,100.00
2022-11-28T16:22:37.736Z,100.00
2022-11-28T16:25:18.830Z,100.00
2022-11-28T16:27:49.033Z,100.00
2022-11-28T16:30:36.963Z,100.00
2022-11-28T16:33:35.956Z,100.00
2022-11-28T16:36:13.388Z,100.00
2022-11-28T16:38:44.802Z,100.00
2022-11-28T16:41:18.431Z,88.93
2022-11-28T16:43:50.533Z,87.13
2022-11-28T16:46:22.896Z,88.31
2022-11-28T16:48:56.593Z,92.33
2022-11-28T16:51:32.778Z,91.12
2022-11-28T16:54:24.443Z,88.74
2022-11-28T16:56:57.583Z,89.99
2022-11-28T16:59:27.195Z,90.99
2022-11-28T17:01:56.089Z,90.80
2022-11-28T17:04:26.365Z,98.03
2022-11-28T17:06:57.448Z,100.00
2022-11-28T17:09:27.752Z,100.00
2022-11-28T17:12:00.469Z,100.00
2022-11-28T17:14:29.813Z,99.97
2022-11-28T17:17:00.005Z,99.67
2022-11-28T17:19:29.605Z,97.30
2022-11-28T17:22:01.003Z,95.58
2022-11-28T17:24:35.862Z,91.19
2022-11-28T17:27:07.732Z,93.50
2022-11-28T17:29:36.720Z,95.25
2022-11-28T17:32:06.185Z,94.24
2022-11-28T17:34:36.098Z,94.69
2022-11-28T17:37:05.393Z,95.84
2022-11-28T17:39:35.827Z,97.81
2022-11-28T17:42:05.635Z,98.14
2022-11-28T17:44:37.599Z,96.47
2022-11-28T17:47:07.053Z,95.35
2022-11-28T17:49:36.454Z,93.94
2022-11-28T17:52:05.429Z,92.83
2022-11-28T17:54:35.672Z,93.59
2022-11-28T17:57:04.596Z,92.38
2022-11-28T17:59:36.079Z,93.46
2022-11-28T18:02:05.017Z,96.30
2022-11-28T18:04:37.480Z,96.26
2022-11-28T18:07:06.379Z,96.41
2022-11-28T18:09:36.848Z,98.67
2022-11-28T18:12:06.199Z,98.90
2022-11-28T18:14:39.674Z,99.49
2022-11-28T18:17:09.623Z,100.00
2022-11-28T18:19:38.643Z,100.00
2022-11-28T18:22:08.917Z,100.00
2022-11-28T18:24:39.210Z,100.00
2022-11-28T18:27:08.162Z,100.00
2022-11-28T18:29:37.291Z,98.73
2022-11-28T18:32:07.367Z,96.40
2022-11-28T18:34:36.390Z,95.34
2022-11-28T18:37:05.908Z,94.16
2022-11-28T18:39:35.057Z,94.21
2022-11-28T18:42:05.487Z,94.02
2022-11-28T18:44:34.657Z,96.58
2022-11-28T18:47:03.840Z,96.44
2022-11-28T18:49:32.768Z,96.06
2022-11-28T18:52:02.662Z,95.67
2022-11-28T18:54:33.107Z,95.25
2022-11-28T18:57:03.299Z,95.60
2022-11-28T18:59:33.763Z,97.98
2022-11-28T19:02:03.346Z,100.00
2022-11-28T19:04:32.837Z,99.51
2022-11-28T19:07:04.068Z,98.21
2022-11-28T19:09:33.035Z,98.50
2022-11-28T19:12:02.012Z,95.04
2022-11-28T19:14:31.218Z,100.00
2022-11-28T19:17:02.783Z,100.00
2022-11-28T19:19:32.940Z,97.86
2022-11-28T19:22:02.303Z,96.81
2022-11-28T19:24:31.364Z,99.47
2022-11-28T19:27:00.451Z,98.80
2022-11-28T19:29:29.754Z,98.00
2022-11-28T19:31:58.792Z,99.39
2022-11-28T19:34:30.251Z,98.12
2022-11-28T19:36:59.176Z,95.71
2022-11-28T19:39:28.230Z,97.70
2022-11-28T19:41:57.160Z,97.33
2022-11-28T19:44:29.035Z,100.00
2022-11-28T19:46:57.904Z,100.00
2022-11-28T19:49:27.278Z,100.00
2022-11-28T19:51:58.413Z,93.79
2022-11-28T19:54:27.981Z,88.68
2022-11-28T19:56:57.920Z,84.55
2022-11-28T19:59:27.374Z,82.36
2022-11-28T20:01:56.518Z,83.86
2022-11-28T20:04:25.512Z,88.02
2022-11-28T20:06:54.632Z,92.59
2022-11-28T20:09:24.914Z,94.65
2022-11-28T20:11:54.470Z,95.74
2022-11-28T20:14:23.641Z,96.82
2022-11-28T20:16:52.702Z,97.36
2022-11-28T20:19:22.863Z,96.67
2022-11-28T20:21:51.878Z,97.71
2022-11-28T20:24:22.133Z,100.00
2022-11-28T20:26:53.181Z,93.73
2022-11-28T20:29:26.793Z,92.38
2022-11-28T20:31:57.292Z,94.98
2022-11-28T20:34:27.007Z,96.16
2022-11-28T20:36:55.957Z,96.01
2022-11-28T20:39:25.639Z,96.57
2022-11-28T20:41:55.921Z,98.97
2022-11-28T20:44:24.915Z,100.00
2022-11-28T20:46:54.004Z,100.00
2022-11-28T20:49:23.071Z,100.00
2022-11-28T20:51:52.016Z,100.00
2022-11-28T20:54:21.034Z,100.00
2022-11-28T20:59:42.356Z,100.00
2022-11-28T21:02:11.874Z,100.00
2022-11-28T21:04:40.836Z,100.00
2022-11-28T21:07:10.047Z,100.00
2022-11-28T21:09:39.067Z,100.00
2022-11-28T21:12:08.679Z,100.00
2022-11-28T21:14:37.567Z,100.00
2022-11-28T21:17:07.828Z,100.00
2022-11-28T21:19:36.708Z,100.00
2022-11-28T21:22:05.565Z,100.00
2022-11-28T21:24:34.452Z,100.00
2022-11-28T21:27:03.876Z,100.00
2022-11-28T21:29:32.763Z,100.00
2022-11-28T21:32:02.125Z,100.00
2022-11-28T21:34:33.926Z,100.00
2022-11-28T21:37:03.502Z,100.00
2022-11-28T21:39:32.345Z,100.00
2022-11-28T21:42:04.039Z,100.00
2022-11-28T21:44:32.953Z,100.00
2022-11-28T21:47:03.537Z,100.00
2022-11-28T21:49:33.847Z,100.00
2022-11-28T21:52:03.815Z,100.00
2022-11-28T21:54:32.708Z,100.00
2022-11-28T21:57:02.131Z,100.00
2022-11-28T21:59:31.058Z,100.00
2022-11-28T22:02:00.018Z,100.00
2022-11-28T22:04:29.690Z,100.00
2022-11-28T22:07:00.662Z,100.00
2022-11-28T22:09:30.624Z,100.00
2022-11-28T22:12:02.442Z,100.00
2022-11-28T22:14:44.531Z,100.00
2022-11-28T22:17:13.534Z,100.00
2022-11-28T22:19:42.865Z,100.00
2022-11-28T22:22:13.173Z,100.00
2022-11-28T22:24:42.432Z,100.00
2022-11-28T22:27:11.632Z,100.00
2022-11-28T22:29:40.850Z,100.00
2022-11-28T22:32:09.909Z,100.00
2022-11-28T22:34:40.189Z,100.00
2022-11-28T22:37:09.761Z,100.00
2022-11-28T22:39:41.115Z,100.00
2022-11-28T22:42:10.893Z,100.00
2022-11-28T22:44:39.791Z,100.00
2022-11-28T22:47:08.674Z,100.00
2022-11-28T22:49:37.883Z,100.00
2022-11-28T22:52:06.860Z,100.00
2022-11-28T22:54:35.929Z,100.00
2022-11-28T22:57:06.664Z,100.00
2022-11-28T22:59:38.354Z,100.00
2022-11-28T23:02:08.384Z,100.00
2022-11-28T23:04:39.115Z,100.00
2022-11-28T23:07:08.393Z,100.00
2022-11-28T23:09:37.736Z,100.00
2022-11-28T23:12:09.971Z,100.00
2022-11-28T23:14:38.978Z,100.00
2022-11-28T23:17:08.253Z,100.00
2022-11-28T23:19:37.392Z,100.00
2022-11-28T23:22:06.996Z,100.00
2022-11-28T23:24:36.216Z,100.00
2022-11-28T23:27:05.345Z,100.00
2022-11-28T23:29:36.222Z,100.00
2022-11-28T23:32:05.366Z,100.00
2022-11-28T23:34:34.298Z,100.00
2022-11-28T23:37:03.837Z,100.00
2022-11-28T23:39:33.265Z,100.00
2022-11-28T23:42:06.250Z,100.00
2022-11-28T23:44:36.497Z,100.00
2022-11-28T23:47:05.491Z,100.00
2022-11-28T23:49:34.439Z,100.00
2022-11-28T23:52:03.503Z,100.00
2022-11-28T23:54:32.363Z,100.00
2022-11-28T23:57:01.281Z,100.00
2022-11-28T23:59:30.141Z,100.00
